Time;durP1;ratioP1;P1;durP2;ratioP2;P2;SDS_P1;SDS_P2;PMS_P1;PMS_P2;Temp;Humidity;BMP_temperature;BMP_pressure;BME280_temperature;BME280_humidity;BME280_pressure;Samples;Min_cycle;Max_cycle;Signal;HPM_P1;HPM_P2
2023/10/17 00:00:20;;;;;;;;;;;;;;;-144.99;100.00;52509.25;5079811;28;19928;-72
2023/10/17 00:02:48;;;;;;;;;;;;;;;-144.99;100.00;52513.31;5078815;28;19959;-71
2023/10/17 00:05:14;;;;;;;;;;;;;;;-144.99;100.00;52503.13;5083151;28;20006;-72
2023/10/17 00:07:44;;;;;;;;;;;;;;;-144.99;100.00;52484.78;5086158;28;19924;-72
2023/10/17 00:10:14;;;;;;;;;;;;;;;-144.99;100.00;52490.91;5084194;28;20009;-73
2023/10/17 00:12:43;;;;;;;;;;;;;;;-144.99;100.00;52488.84;5086044;28;20030;-71
2023/10/17 00:15:20;;;;;;;;;;;;;;;-144.99;100.00;52492.94;5085579;28;19924;-73
2023/10/17 00:17:48;;;;;;;;;;;;;;;-144.99;100.00;52484.78;5093913;28;19925;-73
2023/10/17 00:20:17;;;;;;;;;;;;;;;-144.99;100.00;52482.75;5088177;28;19974;-70
2023/10/17 00:22:44;;;;;;;;;;;;;;;-144.99;100.00;52509.25;5081478;28;19928;-69
2023/10/17 00:25:11;;;;;;;;;;;;;;;-144.99;100.00;52460.31;5079855;28;19977;-70
2023/10/17 00:27:37;;;;;;;;;;;;;;;-144.99;100.00;52525.56;5087268;28;19982;-71
2023/10/17 00:30:04;;;;;;;;;;;;;;;-144.99;100.00;52515.34;5084040;28;20027;-70
2023/10/17 00:32:31;;;;;;;;;;;;;;;-144.99;100.00;52486.81;5082279;28;20123;-71
2023/10/17 00:34:59;;;;;;;;;;;;;;;-144.99;100.00;52515.34;5078375;28;19935;-71
2023/10/17 00:37:30;;;;;;;;;;;;;;;-144.99;100.00;52470.50;5080104;28;19942;-72
2023/10/17 00:39:59;;;;;;;;;;;;;;;-144.99;100.00;52509.25;5073496;28;20292;-71
2023/10/17 00:42:29;;;;;;;;;;;;;;;-144.99;100.00;52505.16;5075941;28;19928;-70
2023/10/17 00:44:56;;;;;;;;;;;;;;;-144.99;100.00;52533.69;5077672;28;19963;-73
2023/10/17 00:47:23;;;;;;;;;;;;;;;-144.99;100.00;52509.25;5083973;28;19924;-71
2023/10/17 00:49:50;;;;;;;;;;;;;;;-144.99;100.00;52525.56;5086357;28;19939;-72
2023/10/17 00:52:22;;;;;;;;;;;;;;;-144.99;100.00;52509.25;5084194;28;20010;-72
2023/10/17 00:54:50;;;;;;;;;;;;;;;-144.99;100.00;52501.09;5080945;28;20016;-70
2023/10/17 00:57:17;;;;;;;;;;;;;;;-144.99;100.00;52519.44;5076786;28;20540;-69
2023/10/17 00:59:50;;;;;;;;;;;;;;;-144.99;100.00;52499.06;5077000;28;19935;-70
2023/10/17 01:02:20;;;;;;;;;;;;;;;-144.99;100.00;52517.41;5078466;28;20417;-70
2023/10/17 01:04:46;;;;;;;;;;;;;;;-144.99;100.00;52545.94;5073849;28;19924;-69
2023/10/17 01:07:23;;;;;;;;;;;;;;;-144.99;100.00;52552.03;5077215;28;19924;-72
2023/10/17 01:10:00;;;;;;;;;;;;;;;-144.99;100.00;52511.28;5078316;28;19932;-68
2023/10/17 01:12:28;;;;;;;;;;;;;;;-144.99;100.00;52486.81;5081548;28;19928;-72
2023/10/17 01:14:54;;;;;;;;;;;;;;;-144.99;100.00;52484.78;5075229;28;19928;-69
2023/10/17 01:17:23;;;;;;;;;;;;;;;-144.99;100.00;52490.91;5077523;28;19927;-68
2023/10/17 01:19:53;;;;;;;;;;;;;;;-144.99;100.00;52501.09;5075756;28;19939;-69
2023/10/17 01:22:19;;;;;;;;;;;;;;;-144.99;100.00;52464.41;5077305;28;19955;-70
2023/10/17 01:24:47;;;;;;;;;;;;;;;-144.99;100.00;52497.00;5073578;28;19931;-71
2023/10/17 01:27:14;;;;;;;;;;;;;;;-144.99;100.00;52476.63;5075228;28;20011;-72
2023/10/17 01:29:43;;;;;;;;;;;;;;;-144.99;100.00;52501.09;5076640;28;19927;-71
2023/10/17 01:32:09;;;;;;;;;;;;;;;-144.99;100.00;52488.84;5081591;28;19924;-72
2023/10/17 01:34:36;;;;;;;;;;;;;;;-144.99;100.00;52464.41;5086689;28;19935;-73
2023/10/17 01:37:03;;;;;;;;;;;;;;;-144.99;100.00;52505.16;5088559;28;19963;-71
2023/10/17 01:39:30;;;;;;;;;;;;;;;-144.99;100.00;52521.47;5085910;28;20711;-72
2023/10/17 01:41:59;;;;;;;;;;;;;;;-144.99;100.00;52523.50;5077039;28;20272;-73
2023/10/17 01:44:25;;;;;;;;;;;;;;;-144.99;100.00;52497.00;5080607;28;19928;-72
2023/10/17 01:46:52;;;;;;;;;;;;;;;-144.99;100.00;52509.25;5069809;28;20338;-72
2023/10/17 01:49:19;;;;;;;;;;;;;;;-144.99;100.00;52525.56;5075740;28;20032;-73
2023/10/17 01:51:48;;;;;;;;;;;;;;;-144.99;100.00;52488.84;5086556;28;20439;-71
2023/10/17 01:54:16;;;;;;;;;;;;;;;-144.99;100.00;52505.16;5083266;28;19935;-73
2023/10/17 01:56:47;;;;;;;;;;;;;;;-144.99;100.00;52488.84;5081776;28;20358;-72
2023/10/17 01:59:17;;;;;;;;;;;;;;;-144.99;100.00;52501.09;5086996;28;19932;-73
2023/10/17 02:01:44;;;;;;;;;;;;;;;-144.99;100.00;52529.63;5094719;28;19934;-72
2023/10/17 02:04:14;;;;;;;;;;;;;;;-144.99;100.00;52513.31;5071447;28;19928;-72
2023/10/17 02:06:42;;;;;;;;;;;;;;;-144.99;100.00;52484.78;5081811;28;20413;-70
2023/10/17 02:09:24;;;;;;;;;;;;;;;-144.99;100.00;52501.09;5074415;28;20017;-72
2023/10/17 02:11:54;;;;;;;;;;;;;;;-144.99;100.00;52521.47;5077623;28;19963;-69
2023/10/17 02:14:22;;;;;;;;;;;;;;;-144.99;100.00;52509.25;5075312;28;19932;-71
2023/10/17 02:16:49;;;;;;;;;;;;;;;-144.99;100.00;52501.09;5083709;28;19952;-72
2023/10/17 02:19:16;;;;;;;;;;;;;;;-144.99;100.00;52511.28;5074898;28;19948;-71
2023/10/17 02:21:43;;;;;;;;;;;;;;;-144.99;100.00;52484.78;5080602;28;20030;-71
2023/10/17 02:24:10;;;;;;;;;;;;;;;-144.99;100.00;52499.06;5062305;28;20389;-72
2023/10/17 02:26:54;;;;;;;;;;;;;;;-144.99;100.00;52505.16;5079066;28;20022;-70
2023/10/17 02:29:24;;;;;;;;;;;;;;;-144.99;100.00;52525.56;5078689;28;19962;-69
2023/10/17 02:31:52;;;;;;;;;;;;;;;-144.99;100.00;52505.16;5079931;28;20479;-72
2023/10/17 02:34:22;;;;;;;;;;;;;;;-144.99;100.00;52529.63;5077986;28;20004;-71
2023/10/17 02:36:48;;;;;;;;;;;;;;;-144.99;100.00;52513.31;5080765;28;19977;-72
2023/10/17 02:39:15;;;;;;;;;;;;;;;-144.99;100.00;52492.94;5079368;28;20018;-70
2023/10/17 02:41:45;;;;;;;;;;;;;;;-144.99;100.00;52507.19;5080525;28;19946;-71
2023/10/17 02:44:12;;;;;;;;;;;;;;;-144.99;100.00;52497.00;5085549;28;20036;-70
2023/10/17 02:46:41;;;;;;;;;;;;;;;-144.99;100.00;52484.78;5085869;28;19931;-72
2023/10/17 02:49:07;;;;;;;;;;;;;;;-144.99;100.00;52525.56;5082942;28;20040;-72
2023/10/17 02:51:34;;;;;;;;;;;;;;;-144.99;100.00;52525.56;5085774;28;20018;-72
2023/10/17 02:54:01;;;;;;;;;;;;;;;-144.99;100.00;52488.84;5081832;28;20018;-73
2023/10/17 02:56:28;;;;;;;;;;;;;;;-144.99;100.00;52533.69;5079855;28;19986;-71
2023/10/17 02:59:06;;;;;;;;;;;;;;;-144.99;100.00;52517.41;5077318;28;19932;-70
2023/10/17 03:01:33;;;;;;;;;;;;;;;-144.99;100.00;52525.56;5078383;28;19930;-70
2023/10/17 03:04:02;;;;;;;;;;;;;;;-144.99;100.00;52533.69;5079734;28;19928;-71
2023/10/17 03:06:29;;;;;;;;;;;;;;;-144.99;100.00;52501.09;5081287;28;19924;-72
2023/10/17 03:09:01;;;;;;;;;;;;;;;-144.99;100.00;52511.28;5078070;28;19934;-71
2023/10/17 03:11:35;;;;;;;;;;;;;;;-144.99;100.00;52533.69;5080981;28;20499;-69
2023/10/17 03:14:10;;;;;;;;;;;;;;;-144.99;100.00;52499.06;5080398;28;19935;-71
2023/10/17 03:16:39;;;;;;;;;;;;;;;-144.99;100.00;52488.84;5082603;28;19934;-70
2023/10/17 03:19:07;;;;;;;;;;;;;;;-144.99;100.00;52509.25;5082857;28;19980;-69
2023/10/17 03:21:34;;;;;;;;;;;;;;;-144.99;100.00;52464.41;5085616;28;19932;-71
2023/10/17 03:24:00;;;;;;;;;;;;;;;-144.99;100.00;52460.31;5079115;28;19939;-69
2023/10/17 03:26:29;;;;;;;;;;;;;;;-144.99;100.00;52464.41;5083377;28;19932;-72
2023/10/17 03:28:55;;;;;;;;;;;;;;;-144.99;100.00;52474.59;5080680;28;19928;-70
2023/10/17 03:31:22;;;;;;;;;;;;;;;-144.99;100.00;52492.94;5076822;28;19951;-70
2023/10/17 03:33:51;;;;;;;;;;;;;;;-144.99;100.00;52478.66;5079601;28;19971;-70
2023/10/17 03:39:21;;;;;;;;;;;;;;;-144.99;100.00;52497.00;4995942;28;19929;-71
2023/10/17 03:41:48;;;;;;;;;;;;;;;-144.99;100.00;52541.84;5058458;28;19928;-71
2023/10/17 03:44:16;;;;;;;;;;;;;;;-144.99;100.00;52509.25;5098460;28;19924;-70
2023/10/17 03:46:46;;;;;;;;;;;;;;;-144.99;100.00;52519.44;5071884;28;19925;-69
2023/10/17 03:49:15;;;;;;;;;;;;;;;-144.99;100.00;52497.00;5078616;28;19931;-71
2023/10/17 03:51:46;;;;;;;;;;;;;;;-144.99;100.00;52458.28;5079629;28;19928;-71
2023/10/17 03:54:17;;;;;;;;;;;;;;;-144.99;100.00;52505.16;5068188;28;19929;-70
2023/10/17 03:56:45;;;;;;;;;;;;;;;-144.99;100.00;52480.72;5071576;28;19960;-71
2023/10/17 03:59:18;;;;;;;;;;;;;;;-144.99;100.00;52488.84;5072545;28;19939;-72
2023/10/17 04:01:47;;;;;;;;;;;;;;;-144.99;100.00;52492.94;5081606;28;19935;-70
2023/10/17 04:04:17;;;;;;;;;;;;;;;-144.99;100.00;52468.47;5069952;28;19925;-71
2023/10/17 04:06:48;;;;;;;;;;;;;;;-144.99;100.00;52505.16;5068934;28;19924;-71
2023/10/17 04:09:25;;;;;;;;;;;;;;;-144.99;100.00;52513.31;5080430;28;20418;-69
2023/10/17 04:11:53;;;;;;;;;;;;;;;-144.99;100.00;52484.78;5072505;28;20348;-71
2023/10/17 04:14:20;;;;;;;;;;;;;;;-144.99;100.00;52484.78;5072927;28;19938;-71
2023/10/17 04:16:48;;;;;;;;;;;;;;;-144.99;100.00;52468.47;5080517;28;19939;-68
2023/10/17 04:19:17;;;;;;;;;;;;;;;-144.99;100.00;52488.84;5081976;28;20018;-71
2023/10/17 04:21:51;;;;;;;;;;;;;;;-144.99;100.00;52497.00;5078472;28;20318;-71
2023/10/17 04:24:26;;;;;;;;;;;;;;;-144.99;100.00;52444.03;5074333;28;19935;-70
2023/10/17 04:27:05;;;;;;;;;;;;;;;-144.99;100.00;52478.66;5076471;28;20528;-70
2023/10/17 04:29:32;;;;;;;;;;;;;;;-144.99;100.00;52511.28;5076472;28;19928;-74
2023/10/17 04:32:01;;;;;;;;;;;;;;;-144.99;100.00;52472.56;5079544;28;19934;-72
2023/10/17 04:34:27;;;;;;;;;;;;;;;-144.99;100.00;52505.16;5084404;28;19997;-70
2023/10/17 04:36:56;;;;;;;;;;;;;;;-144.99;100.00;52511.28;5080060;28;20040;-71
2023/10/17 04:39:34;;;;;;;;;;;;;;;-144.99;100.00;52519.44;5076444;28;19928;-71
2023/10/17 04:42:09;;;;;;;;;;;;;;;-144.99;100.00;52460.31;5073570;28;19929;-71
2023/10/17 04:44:36;;;;;;;;;;;;;;;-144.99;100.00;52480.72;5081036;28;20556;-71
2023/10/17 04:49:58;;;;;;;;;;;;;;;-144.99;100.00;52501.09;5020525;28;19929;-71
2023/10/17 04:52:40;;;;;;;;;;;;;;;-144.99;100.00;52458.28;5063991;28;20553;-71
2023/10/17 04:55:17;;;;;;;;;;;;;;;-144.99;100.00;52501.09;5084382;28;20496;-72
2023/10/17 04:57:56;;;;;;;;;;;;;;;-144.99;100.00;52478.66;5083422;28;19946;-72
2023/10/17 05:00:42;;;;;;;;;;;;;;;-144.99;100.00;52486.81;5079601;28;19935;-74
2023/10/17 05:03:13;;;;;;;;;;;;;;;-144.99;100.00;52476.63;5077720;28;19963;-71
2023/10/17 05:05:40;;;;;;;;;;;;;;;-144.99;100.00;52521.47;5079644;28;19928;-72
2023/10/17 05:08:11;;;;;;;;;;;;;;;-144.99;100.00;52525.56;5078668;28;20394;-75
2023/10/17 06:19:15;;;;;;;;;;;;;;;-144.99;100.00;52486.81;5065623;28;19936;-75
2023/10/17 06:22:35;;;;;;;;;;;;;;;-144.99;100.00;52521.47;5070096;28;20388;-72
2023/10/17 06:24:45;;;;;;;;;;;;;;;-144.99;100.00;52468.47;5073181;28;20447;-74
2023/10/17 06:27:51;;;;;;;;;;;;;;;-144.99;100.00;52525.56;5078130;28;19955;-75
2023/10/17 06:30:27;;;;;;;;;;;;;;;-144.99;100.00;52476.63;5075250;28;19931;-75
2023/10/17 06:33:05;;;;;;;;;;;;;;;-144.99;100.00;52492.94;5080505;28;20589;-76
2023/10/17 06:35:31;;;;;;;;;;;;;;;-144.99;100.00;52509.25;5081336;28;19981;-78
2023/10/17 06:37:58;;;;;;;;;;;;;;;-144.99;100.00;52488.84;5083164;28;20018;-77
2023/10/17 06:40:30;;;;;;;;;;;;;;;-144.99;100.00;52501.09;5083497;28;19978;-74
2023/10/17 06:42:59;;;;;;;;;;;;;;;-144.99;100.00;52480.72;5074904;28;19925;-74
2023/10/17 06:45:27;;;;;;;;;;;;;;;-144.99;100.00;52523.50;5084808;28;20493;-73
2023/10/17 06:47:57;;;;;;;;;;;;;;;-144.99;100.00;52462.34;5081278;28;19934;-73
2023/10/17 06:53:11;;;;;;;;;;;;;;;-144.99;100.00;52484.78;5085567;28;20548;-73
2023/10/17 06:55:42;;;;;;;;;;;;;;;-144.99;100.00;52505.16;5080626;28;20400;-76
2023/10/17 06:58:14;;;;;;;;;;;;;;;-144.99;100.00;52499.06;4733527;28;10000097;-74
2023/10/17 07:00:51;;;;;;;;;;;;;;;-144.99;100.00;52509.25;5081648;28;19966;-73
2023/10/17 07:03:24;;;;;;;;;;;;;;;-144.99;100.00;52492.94;5080323;28;19924;-75
2023/10/17 07:05:51;;;;;;;;;;;;;;;-144.99;100.00;52501.09;5073140;28;19967;-72
2023/10/17 07:08:19;;;;;;;;;;;;;;;-144.99;100.00;52480.72;5083729;28;20075;-73
2023/10/17 07:10:59;;;;;;;;;;;;;;;-144.99;100.00;52505.16;5101608;22;20242;-71
2023/10/17 07:13:49;;;;;;;;;;;;;;;-144.99;100.00;52480.72;5102115;28;19939;-69
2023/10/17 07:16:22;;;;;;;;;;;;;;;-144.99;100.00;52484.78;5099529;28;19955;-69
2023/10/17 07:18:52;;;;;;;;;;;;;;;-144.99;100.00;52497.00;5094097;28;19928;-70
2023/10/17 07:21:23;;;;;;;;;;;;;;;-144.99;100.00;52468.47;5105931;28;19943;-70
2023/10/17 07:23:53;;;;;;;;;;;;;;;-144.99;100.00;52456.25;5111691;28;20365;-70
2023/10/17 07:26:35;;;;;;;;;;;;;;;-144.99;100.00;52486.81;5103678;28;20022;-70
2023/10/17 07:29:05;;;;;;;;;;;;;;;-144.99;100.00;52464.41;5096956;28;20480;-69
2023/10/17 07:31:33;;;;;;;;;;;;;;;-144.99;100.00;52484.78;5097491;28;19931;-69
2023/10/17 07:34:16;;;;;;;;;;;;;;;-144.99;100.00;52468.47;5098400;28;20217;-72
2023/10/17 07:36:43;;;;;;;;;;;;;;;-144.99;100.00;52488.84;5102917;28;20179;-69
2023/10/17 07:39:22;;;;;;;;;;;;;;;-144.99;100.00;52505.16;5106891;28;20378;-70
2023/10/17 07:41:53;;;;;;;;;;;;;;;-144.99;100.00;52456.25;5095043;28;19928;-70
2023/10/17 07:44:21;;;;;;;;;;;;;;;-144.99;100.00;52494.97;5104380;28;19966;-69
2023/10/17 07:46:51;;;;;;;;;;;;;;;-144.99;100.00;52468.47;5096797;28;19954;-69
2023/10/17 07:49:25;;;;;;;;;;;;;;;-144.99;100.00;52468.47;5106351;28;19962;-70
2023/10/17 07:51:51;;;;;;;;;;;;;;;-144.99;100.00;52476.63;5102067;28;19988;-69
2023/10/17 07:54:18;;;;;;;;;;;;;;;-144.99;100.00;52468.47;5098655;28;19977;-70
2023/10/17 07:56:50;;;;;;;;;;;;;;;-144.99;100.00;52505.16;5094327;28;19935;-69
2023/10/17 07:59:17;;;;;;;;;;;;;;;-144.99;100.00;52501.09;5091064;28;20399;-70
2023/10/17 08:01:45;;;;;;;;;;;;;;;-144.99;100.00;52488.84;5099338;28;19981;-70
2023/10/17 08:04:23;;;;;;;;;;;;;;;-144.99;100.00;52480.72;5092007;28;19928;-70
2023/10/17 08:06:50;;;;;;;;;;;;;;;-144.99;100.00;52435.88;5103726;28;19985;-70
2023/10/17 08:09:23;;;;;;;;;;;;;;;-144.99;100.00;52444.03;5094218;28;19928;-69
2023/10/17 08:11:51;;;;;;;;;;;;;;;-144.99;100.00;52484.78;5095680;28;19935;-71
2023/10/17 08:14:19;;;;;;;;;;;;;;;-144.99;100.00;52460.31;5108051;28;19924;-70
2023/10/17 08:16:48;;;;;;;;;;;;;;;-144.99;100.00;52472.56;5092775;28;19924;-70
2023/10/17 08:19:21;;;;;;;;;;;;;;;-144.99;100.00;52452.16;5090697;28;20320;-71
2023/10/17 08:21:59;;;;;;;;;;;;;;;-144.99;100.00;52509.25;5093668;28;20411;-69
2023/10/17 08:24:33;;;;;;;;;;;;;;;-144.99;100.00;52452.16;5091042;28;20028;-70
2023/10/17 08:27:17;;;;;;;;;;;;;;;-144.99;100.00;52492.94;5103028;28;19950;-70
2023/10/17 08:29:45;;;;;;;;;;;;;;;-144.99;100.00;52460.31;5089961;28;20023;-70
2023/10/17 08:32:38;;;;;;;;;;;;;;;-144.99;100.00;52444.03;5093253;28;19938;-70
2023/10/17 08:35:08;;;;;;;;;;;;;;;-144.99;100.00;52439.94;5098278;28;20481;-70
2023/10/17 08:37:43;;;;;;;;;;;;;;;-144.99;100.00;52488.84;5103805;28;19948;-69
2023/10/17 08:40:29;;;;;;;;;;;;;;;-144.99;100.00;52488.84;5120584;28;19932;-70
2023/10/17 08:42:56;;;;;;;;;;;;;;;-144.99;100.00;52462.34;5114306;28;19935;-68
2023/10/17 08:45:26;;;;;;;;;;;;;;;-144.99;100.00;52441.97;5100312;27;19924;-68
2023/10/17 08:47:52;;;;;;;;;;;;;;;-144.99;100.00;52478.66;5092996;28;20443;-68
2023/10/17 08:50:20;;;;;;;;;;;;;;;-144.99;100.00;52464.41;5098646;28;20670;-67
2023/10/17 08:52:48;;;;;;;;;;;;;;;-144.99;100.00;52435.88;5109404;28;20427;-67
2023/10/17 08:55:16;;;;;;;;;;;;;;;-144.99;100.00;52482.75;5098848;28;19957;-67
2023/10/17 08:57:42;;;;;;;;;;;;;;;-144.99;99.66;52492.94;5097304;28;19928;-68
2023/10/17 09:00:24;;;;;;;;;;;;;;;-144.99;98.33;52480.72;5096752;28;19982;-68
2023/10/17 09:02:59;;;;;;;;;;;;;;;-144.99;97.16;52444.03;5098089;28;20383;-69
2023/10/17 09:05:29;;;;;;;;;;;;;;;-144.99;95.81;52423.63;5097518;28;19928;-68
2023/10/17 09:08:02;;;;;;;;;;;;;;;-144.99;95.86;52484.78;5093292;27;19928;-68
2023/10/17 09:10:36;;;;;;;;;;;;;;;-144.99;95.30;52452.16;5096962;28;20232;-68
2023/10/17 09:13:52;;;;;;;;;;;;;;;-144.99;94.86;52456.25;5105287;28;20543;-69
2023/10/17 09:16:08;;;;;;;;;;;;;;;-144.99;93.18;52431.78;5105121;28;20379;-68
2023/10/17 09:18:40;;;;;;;;;;;;;;;-144.99;92.28;52439.94;5087975;28;19924;-67
2023/10/17 09:21:08;;;;;;;;;;;;;;;-144.99;91.27;52431.78;5100115;28;19928;-68
2023/10/17 09:23:38;;;;;;;;;;;;;;;-144.99;90.28;52460.31;5107553;28;19924;-68
2023/10/17 09:26:07;;;;;;;;;;;;;;;-144.99;90.00;52423.63;5102928;28;19982;-68
2023/10/17 09:28:35;;;;;;;;;;;;;;;-144.99;87.98;52468.47;5105921;28;19924;-68
2023/10/17 09:31:03;;;;;;;;;;;;;;;-144.99;87.64;52482.75;5094184;28;19932;-68
2023/10/17 09:33:31;;;;;;;;;;;;;;;-144.99;86.11;52452.16;5096003;28;20026;-68
2023/10/17 09:35:59;;;;;;;;;;;;;;;-144.99;84.96;52464.41;5098751;28;19967;-68
2023/10/17 09:38:28;;;;;;;;;;;;;;;-144.99;84.74;52439.94;5085792;28;19928;-67
2023/10/17 09:40:55;;;;;;;;;;;;;;;-144.99;83.56;52448.09;5094545;28;19924;-67
2023/10/17 09:43:22;;;;;;;;;;;;;;;-144.99;83.41;52456.25;5096521;28;19930;-68
2023/10/17 09:45:52;;;;;;;;;;;;;;;-144.99;83.01;52468.47;5098189;28;19928;-68
2023/10/17 09:48:22;;;;;;;;;;;;;;;-144.99;82.07;52444.03;5101634;28;19930;-68
2023/10/17 09:50:51;;;;;;;;;;;;;;;-144.99;81.25;52444.03;5101228;28;20580;-67
2023/10/17 09:53:18;;;;;;;;;;;;;;;-144.99;80.97;52458.28;5109030;28;19972;-68
2023/10/17 09:55:48;;;;;;;;;;;;;;;-144.99;77.80;52448.09;5107461;28;19993;-68
2023/10/17 09:58:17;;;;;;;;;;;;;;;-144.99;77.52;52439.94;5108327;28;20009;-68
2023/10/17 10:00:47;;;;;;;;;;;;;;;-144.99;76.47;52446.06;5108575;28;20070;-68
2023/10/17 10:03:15;;;;;;;;;;;;;;;-144.99;75.91;52450.13;5098899;28;20255;-68
2023/10/17 10:05:42;;;;;;;;;;;;;;;-144.99;75.76;52472.56;5112538;28;19955;-68
2023/10/17 10:08:23;;;;;;;;;;;;;;;-144.99;75.06;52437.91;5102824;28;20015;-68
2023/10/17 10:10:52;;;;;;;;;;;;;;;-144.99;75.26;52464.41;5097892;28;20362;-68
2023/10/17 10:13:19;;;;;;;;;;;;;;;-144.99;74.73;52403.25;5094527;28;19959;-68
2023/10/17 10:15:53;;;;;;;;;;;;;;;-144.99;74.20;52444.03;5097944;28;19981;-69
2023/10/17 10:18:50;;;;;;;;;;;;;;;-144.99;73.05;52409.38;5097853;28;19928;-68
2023/10/17 10:21:16;;;;;;;;;;;;;;;-144.99;72.07;52374.72;5093129;28;19928;-69
2023/10/17 10:23:45;;;;;;;;;;;;;;;-144.99;69.85;52370.63;5099834;28;20456;-68
2023/10/17 10:26:17;;;;;;;;;;;;;;;-144.99;69.01;52382.88;5100009;28;19924;-69
2023/10/17 10:28:44;;;;;;;;;;;;;;;-144.99;67.74;52376.75;5112379;28;19928;-69
2023/10/17 10:31:29;;;;;;;;;;;;;;;-144.99;66.00;52350.25;5102857;28;20031;-70
2023/10/17 10:33:58;;;;;;;;;;;;;;;-144.99;67.35;52403.25;5094915;28;19927;-69
2023/10/17 10:36:25;;;;;;;;;;;;;;;-144.99;67.98;52399.19;5103974;28;19931;-68
2023/10/17 10:38:53;;;;;;;;;;;;;;;-144.99;67.78;52374.72;5103140;28;20657;-70
2023/10/17 10:41:22;;;;;;;;;;;;;;;-144.99;67.77;52362.50;5100973;28;19957;-69
2023/10/17 10:43:49;;;;;;;;;;;;;;;-144.99;67.89;52376.75;5098048;28;19928;-68
2023/10/17 10:46:17;;;;;;;;;;;;;;;-144.99;66.63;52321.72;5093020;28;19981;-69
2023/10/17 10:48:47;;;;;;;;;;;;;;;-144.99;64.66;52325.81;5098625;28;19932;-69
2023/10/17 10:51:15;;;;;;;;;;;;;;;-144.99;64.48;52317.66;5097412;28;20009;-69
2023/10/17 10:53:44;;;;;;;;;;;;;;;-144.99;63.16;52264.66;5102002;28;19928;-68
2023/10/17 10:56:11;;;;;;;;;;;;;;;-144.99;62.00;52301.34;5107230;28;19924;-69
2023/10/17 10:58:47;;;;;;;;;;;;;;;-144.99;60.17;52232.03;5101512;28;20066;-68
2023/10/17 11:01:14;;;;;;;;;;;;;;;-144.99;59.40;52119.94;5108362;28;20045;-69
2023/10/17 11:03:41;;;;;;;;;;;;;;;-144.99;57.05;52109.75;5094373;28;20392;-69
2023/10/17 11:06:08;;;;;;;;;;;;;;;-144.99;56.38;52195.34;5105612;28;19927;-69
2023/10/17 11:08:36;;;;;;;;;;;;;;;-144.99;55.86;52215.75;5100942;28;19924;-69
2023/10/17 11:11:03;;;;;;;;;;;;;;;-144.99;56.71;52207.59;5104016;28;19964;-69
2023/10/17 11:13:34;;;;;;;;;;;;;;;-144.99;56.83;52187.19;5098514;27;20352;-69
2023/10/17 11:16:04;;;;;;;;;;;;;;;-144.99;56.49;52209.63;5092310;28;19927;-69
2023/10/17 11:18:33;;;;;;;;;;;;;;;-144.99;55.94;52170.91;5100330;28;19924;-69
2023/10/17 11:21:00;;;;;;;;;;;;;;;-144.99;55.34;52195.34;5093202;28;20360;-69
2023/10/17 11:23:27;;;;;;;;;;;;;;;-144.99;54.63;52199.44;5095237;27;19982;-68
2023/10/17 11:25:54;;;;;;;;;;;;;;;-144.99;54.38;52221.84;5093839;27;20296;-70
2023/10/17 11:28:21;;;;;;;;;;;;;;;-144.99;54.58;52223.88;5096485;28;19928;-69
2023/10/17 11:30:48;;;;;;;;;;;;;;;-144.99;54.49;52103.66;5095718;28;19932;-70
2023/10/17 11:33:17;;;;;;;;;;;;;;;-144.99;53.99;52085.31;5105644;28;20250;-69
2023/10/17 11:35:47;;;;;;;;;;;;;;;-144.99;52.51;52158.66;5092748;28;19935;-69
2023/10/17 11:38:33;;;;;;;;;;;;;;;-144.99;52.06;52105.69;5102279;28;19928;-69
2023/10/17 11:41:00;;;;;;;;;;;;;;;-144.99;51.83;52109.75;5097308;28;19932;-70
2023/10/17 11:43:29;;;;;;;;;;;;;;;-144.99;51.41;52195.34;5099602;28;20438;-70
2023/10/17 11:45:56;;;;;;;;;;;;;;;-144.99;51.68;52191.28;5099322;27;19928;-69
2023/10/17 11:48:27;;;;;;;;;;;;;;;-144.99;51.86;52156.63;5094315;28;19928;-70
2023/10/17 11:51:07;;;;;;;;;;;;;;;-144.99;51.52;52128.09;5102038;28;19981;-69
2023/10/17 11:53:33;;;;;;;;;;;;;;;-144.99;51.00;52140.31;5096604;28;20365;-70
2023/10/17 11:56:01;;;;;;;;;;;;;;;-144.99;51.43;52199.44;5093574;27;19957;-70
2023/10/17 11:58:29;;;;;;;;;;;;;;;-144.99;51.54;52162.75;5100059;28;20566;-70
2023/10/17 12:00:55;;;;;;;;;;;;;;;-144.99;52.48;52268.72;5091330;28;19982;-69
2023/10/17 12:03:24;;;;;;;;;;;;;;;-144.99;52.90;52289.13;5101811;28;19960;-69
2023/10/17 12:05:51;;;;;;;;;;;;;;;-144.99;52.91;52268.72;5091444;28;19924;-69
2023/10/17 12:08:23;;;;;;;;;;;;;;;-144.99;52.99;52248.34;5100744;28;20031;-69
2023/10/17 12:10:50;;;;;;;;;;;;;;;-144.99;53.98;52301.34;5093907;28;20396;-69
2023/10/17 12:13:17;;;;;;;;;;;;;;;-144.99;54.74;52317.66;5099860;28;19927;-69
2023/10/17 12:15:44;;;;;;;;;;;;;;;-144.99;55.89;52342.09;5105289;28;20038;-69
2023/10/17 12:18:10;;;;;;;;;;;;;;;-144.99;56.36;52370.63;5100413;28;19928;-69
2023/10/17 12:20:40;;;;;;;;;;;;;;;-144.99;57.46;52386.94;5102507;28;19927;-69
2023/10/17 12:23:11;;;;;;;;;;;;;;;-144.99;58.01;52407.31;5101766;28;20563;-69
2023/10/17 12:25:38;;;;;;;;;;;;;;;-144.99;57.62;52456.25;5099035;28;19924;-69
2023/10/17 12:28:08;;;;;;;;;;;;;;;-144.99;58.66;52413.44;5094095;28;19928;-69
2023/10/17 12:30:37;;;;;;;;;;;;;;;-144.99;59.47;52427.72;5097376;28;19938;-69
2023/10/17 12:33:04;;;;;;;;;;;;;;;-144.99;60.38;52448.09;5096370;28;20433;-69
2023/10/17 12:35:30;;;;;;;;;;;;;;;-144.99;61.02;52448.09;5101077;28;20023;-68
2023/10/17 12:37:59;;;;;;;;;;;;;;;-144.99;61.37;52464.41;5096868;28;19928;-68
2023/10/17 12:40:30;;;;;;;;;;;;;;;-144.99;60.39;52280.97;5099746;28;19928;-69
2023/10/17 12:42:56;;;;;;;;;;;;;;;-144.99;58.56;52211.66;5098610;28;19934;-69
2023/10/17 12:45:24;;;;;;;;;;;;;;;-144.99;56.17;52191.28;5096186;28;19927;-68
2023/10/17 12:47:51;;;;;;;;;;;;;;;-144.99;53.62;52146.44;5106321;28;19976;-69
2023/10/17 12:50:18;;;;;;;;;;;;;;;-144.99;52.27;52105.69;5097640;28;19928;-69
2023/10/17 12:52:45;;;;;;;;;;;;;;;-144.99;51.39;52097.53;5096266;28;19928;-69
2023/10/17 12:55:12;;;;;;;;;;;;;;;-144.99;51.10;52109.75;5107584;28;19927;-69
2023/10/17 12:57:40;;;;;;;;;;;;;;;-144.99;51.27;52097.53;5099096;28;20460;-69
2023/10/17 13:00:09;;;;;;;;;;;;;;;-144.99;50.80;52081.22;5092802;28;19928;-69
2023/10/17 13:02:38;;;;;;;;;;;;;;;-144.99;50.61;52097.53;5086594;28;20546;-69
2023/10/17 13:05:06;;;;;;;;;;;;;;;-144.99;50.76;52069.00;5091330;28;20026;-69
2023/10/17 13:07:32;;;;;;;;;;;;;;;-144.99;50.24;52064.91;5102431;28;19996;-73
2023/10/17 13:09:59;;;;;;;;;;;;;;;-144.99;49.56;52077.16;5093188;28;20428;-70
2023/10/17 13:12:25;;;;;;;;;;;;;;;-144.99;49.71;52073.06;5099108;28;19963;-70
2023/10/17 13:14:54;;;;;;;;;;;;;;;-144.99;49.98;52113.84;5099143;28;19977;-70
2023/10/17 13:17:22;;;;;;;;;;;;;;;-144.99;49.69;52040.47;5093337;28;20147;-70
2023/10/17 13:19:51;;;;;;;;;;;;;;;-144.99;48.81;52036.38;5101421;28;19986;-70
2023/10/17 13:22:17;;;;;;;;;;;;;;;-144.99;48.54;52032.31;5109940;28;20270;-70
2023/10/17 13:24:45;;;;;;;;;;;;;;;-144.99;49.82;52101.59;5103589;28;19935;-70
2023/10/17 13:27:11;;;;;;;;;;;;;;;-144.99;49.84;52056.78;5101962;28;20216;-70
2023/10/17 13:29:38;;;;;;;;;;;;;;;-144.99;49.12;52028.22;5101817;28;20344;-70
2023/10/17 13:32:07;;;;;;;;;;;;;;;-144.99;49.66;52073.06;5102726;28;20338;-70
2023/10/17 13:34:35;;;;;;;;;;;;;;;-144.99;49.20;52085.31;5092546;28;20012;-70
2023/10/17 13:37:04;;;;;;;;;;;;;;;-144.99;49.40;52107.72;5090120;28;20018;-70
2023/10/17 13:39:30;;;;;;;;;;;;;;;-144.99;50.11;52093.44;5094005;28;19956;-70
2023/10/17 13:41:57;;;;;;;;;;;;;;;-144.99;50.67;52126.06;5108443;28;19977;-70
2023/10/17 13:44:23;;;;;;;;;;;;;;;-144.99;51.01;52138.28;5109779;28;19955;-70
2023/10/17 13:46:51;;;;;;;;;;;;;;;-144.99;51.40;52126.06;5101621;28;19927;-70
2023/10/17 13:49:19;;;;;;;;;;;;;;;-144.99;50.35;52126.06;5097781;28;19981;-70
2023/10/17 13:51:47;;;;;;;;;;;;;;;-144.99;50.27;52101.59;5097271;28;20368;-70